Time;durP1;ratioP1;P1;durP2;ratioP2;P2;SDS_P1;SDS_P2;PMS_P1;PMS_P2;Temp;Humidity;BMP_temperature;BMP_pressure;BME280_temperature;BME280_humidity;BME280_pressure;Samples;Min_cycle;Max_cycle;Signal;HPM_P1;HPM_P2
2023/05/02 00:01:35;;;;;;;31.87;27.37;;;;;;;;;;5013685;28;20449;-69
2023/05/02 00:04:02;;;;;;;36.80;29.43;;;;;;;;;;5014135;28;20551;-69
2023/05/02 00:06:31;;;;;;;32.10;28.60;;;;;;;;;;5013486;28;20456;-70
2023/05/02 00:08:59;;;;;;;37.30;29.60;;;;;;;;;;5013505;28;20459;-70
2023/05/02 00:11:26;;;;;;;35.50;28.60;;;;;;;;;;5013516;28;20451;-69
2023/05/02 00:13:53;;;;;;;41.07;31.97;;;;;;;;;;5013677;28;20448;-69
2023/05/02 00:16:21;;;;;;;34.70;29.07;;;;;;;;;;5013821;28;20448;-69
2023/05/02 00:18:48;;;;;;;35.27;28.67;;;;;;;;;;5013938;28;20447;-70
2023/05/02 00:21:15;;;;;;;38.63;30.80;;;;;;;;;;5014044;28;20455;-69
2023/05/02 00:23:43;;;;;;;41.07;30.27;;;;;;;;;;5014826;28;20439;-69
2023/05/02 00:26:11;;;;;;;43.53;31.73;;;;;;;;;;5017804;28;20806;-69
2023/05/02 00:28:39;;;;;;;36.87;29.33;;;;;;;;;;5017544;28;20539;-69
2023/05/02 00:31:06;;;;;;;48.10;30.90;;;;;;;;;;5017424;28;20455;-69
2023/05/02 00:33:33;;;;;;;44.37;31.07;;;;;;;;;;5017487;28;20854;-69
2023/05/02 00:36:00;;;;;;;42.83;30.47;;;;;;;;;;5017037;28;20456;-69
2023/05/02 00:38:27;;;;;;;49.47;32.67;;;;;;;;;;5016602;28;20477;-69
2023/05/02 00:40:55;;;;;;;48.70;32.93;;;;;;;;;;5015844;28;20491;-69
2023/05/02 00:43:23;;;;;;;43.07;31.07;;;;;;;;;;5015959;28;20451;-69
2023/05/02 00:45:51;;;;;;;46.40;31.83;;;;;;;;;;5015489;28;20457;-70
2023/05/02 00:48:20;;;;;;;44.57;31.53;;;;;;;;;;5015632;28;20450;-69
2023/05/02 00:50:47;;;;;;;52.00;35.23;;;;;;;;;;5016563;28;20548;-71
2023/05/02 00:53:14;;;;;;;53.60;34.23;;;;;;;;;;5015949;28;20450;-69
2023/05/02 00:55:42;;;;;;;49.33;33.10;;;;;;;;;;5015888;28;20443;-69
2023/05/02 00:58:10;;;;;;;51.67;32.97;;;;;;;;;;5015599;28;20440;-69
2023/05/02 01:00:43;;;;;;;41.73;30.47;;;;;;;;;;4996192;28;20828;-69
2023/05/02 01:03:13;;;;;;;49.73;33.10;;;;;;;;;;4995989;28;20433;-69
2023/05/02 01:05:45;;;;;;;47.07;33.20;;;;;;;;;;4995815;28;20447;-69
2023/05/02 01:08:18;;;;;;;45.30;31.30;;;;;;;;;;4996135;28;20448;-69
2023/05/02 01:10:49;;;;;;;43.80;30.10;;;;;;;;;;4995981;28;20511;-70
2023/05/02 01:13:21;;;;;;;42.70;30.80;;;;;;;;;;4995552;28;20452;-69
2023/05/02 01:15:51;;;;;;;48.57;33.03;;;;;;;;;;4996494;28;20431;-69
2023/05/02 01:18:21;;;;;;;44.03;29.73;;;;;;;;;;4995827;28;20454;-70
2023/05/02 01:20:48;;;;;;;48.73;33.57;;;;;;;;;;4995870;28;20475;-69
2023/05/02 01:23:23;;;;;;;51.00;32.73;;;;;;;;;;4995684;28;20448;-69
2023/05/02 01:25:56;;;;;;;48.90;32.23;;;;;;;;;;4995513;28;20432;-69
2023/05/02 01:28:29;;;;;;;45.17;31.20;;;;;;;;;;4995417;28;20432;-69
2023/05/02 01:30:58;;;;;;;48.17;31.20;;;;;;;;;;4995470;28;20439;-69
2023/05/02 01:33:27;;;;;;;51.13;33.83;;;;;;;;;;4995712;28;20444;-69
2023/05/02 01:35:55;;;;;;;53.30;33.90;;;;;;;;;;4995946;28;20853;-70
2023/05/02 01:38:24;;;;;;;50.57;32.17;;;;;;;;;;4958723;28;1086783;-69
2023/05/02 01:40:52;;;;;;;51.47;33.73;;;;;;;;;;4996582;28;20530;-69
2023/05/02 01:43:21;;;;;;;56.27;37.27;;;;;;;;;;4996524;28;20507;-70
2023/05/02 01:45:50;;;;;;;56.17;32.60;;;;;;;;;;4996802;28;20852;-69
2023/05/02 01:48:20;;;;;;;54.63;35.20;;;;;;;;;;4996444;28;20443;-70
2023/05/02 01:50:49;;;;;;;56.73;38.13;;;;;;;;;;4996750;28;20440;-70
2023/05/02 01:53:16;;;;;;;59.63;37.70;;;;;;;;;;4996416;28;20444;-70
2023/05/02 01:55:44;;;;;;;54.60;34.97;;;;;;;;;;4996322;28;20463;-69
2023/05/02 01:58:11;;;;;;;62.87;36.27;;;;;;;;;;4996301;28;20654;-70
2023/05/02 02:00:39;;;;;;;55.87;37.13;;;;;;;;;;4996552;28;20475;-70
2023/05/02 02:03:07;;;;;;;52.33;32.13;;;;;;;;;;4995812;28;20444;-69
2023/05/02 02:05:36;;;;;;;55.13;34.70;;;;;;;;;;4996183;28;20455;-70
2023/05/02 02:08:03;;;;;;;53.07;34.23;;;;;;;;;;4995610;28;20448;-69
2023/05/02 02:10:32;;;;;;;58.73;34.83;;;;;;;;;;4995762;28;20457;-70
2023/05/02 02:13:03;;;;;;;50.93;35.00;;;;;;;;;;4996014;28;20452;-70
2023/05/02 02:15:31;;;;;;;53.37;32.03;;;;;;;;;;4996252;28;20436;-70
2023/05/02 02:17:59;;;;;;;61.43;34.50;;;;;;;;;;4995928;28;20451;-70
2023/05/02 02:20:27;;;;;;;49.17;33.67;;;;;;;;;;4995888;28;20506;-70
2023/05/02 02:22:57;;;;;;;52.83;32.93;;;;;;;;;;4995813;28;20440;-70
2023/05/02 02:25:25;;;;;;;44.70;30.90;;;;;;;;;;4995854;28;20446;-70
2023/05/02 02:27:53;;;;;;;51.60;29.47;;;;;;;;;;4995463;28;20946;-70
2023/05/02 02:30:20;;;;;;;51.97;32.60;;;;;;;;;;4996360;28;20466;-70
2023/05/02 02:32:47;;;;;;;49.77;31.03;;;;;;;;;;4995356;28;20449;-69
2023/05/02 02:35:14;;;;;;;43.87;27.77;;;;;;;;;;4996170;28;20449;-70
2023/05/02 02:37:43;;;;;;;50.10;29.53;;;;;;;;;;4995217;28;20479;-69
2023/05/02 02:40:16;;;;;;;47.83;29.92;;;;;;;;;;4995690;28;20491;-69
2023/05/02 02:42:45;;;;;;;50.17;28.90;;;;;;;;;;4995158;28;20652;-69
2023/05/02 02:45:19;;;;;;;46.63;29.70;;;;;;;;;;4995367;28;20454;-70
2023/05/02 02:47:51;;;;;;;48.37;28.80;;;;;;;;;;4995385;28;20781;-69
2023/05/02 02:50:20;;;;;;;43.70;28.20;;;;;;;;;;4995456;28;20447;-69
2023/05/02 02:52:53;;;;;;;42.33;26.50;;;;;;;;;;4994974;28;20809;-69
2023/05/02 02:55:25;;;;;;;44.80;26.27;;;;;;;;;;4995005;28;20448;-70
2023/05/02 02:57:56;;;;;;;37.40;24.37;;;;;;;;;;4994884;28;20429;-69
2023/05/02 03:00:25;;;;;;;38.37;25.30;;;;;;;;;;4995340;28;20475;-69
2023/05/02 03:02:53;;;;;;;34.93;23.60;;;;;;;;;;4994625;28;20550;-69
2023/05/02 03:05:20;;;;;;;40.90;25.63;;;;;;;;;;4994683;28;20451;-69
2023/05/02 03:07:48;;;;;;;37.50;25.00;;;;;;;;;;4994688;28;20451;-70
2023/05/02 03:10:15;;;;;;;37.93;24.93;;;;;;;;;;4994497;28;20506;-70
2023/05/02 03:12:43;;;;;;;38.93;23.50;;;;;;;;;;4994723;28;20448;-70
2023/05/02 03:15:19;;;;;;;35.97;22.53;;;;;;;;;;4994827;28;20446;-71
2023/05/02 03:17:46;;;;;;;44.33;22.97;;;;;;;;;;4994509;28;20483;-70
2023/05/02 03:20:13;;;;;;;32.03;23.33;;;;;;;;;;4994629;28;20480;-71
2023/05/02 03:22:40;;;;;;;36.57;22.83;;;;;;;;;;4994480;28;20446;-70
2023/05/02 03:25:08;;;;;;;37.23;23.10;;;;;;;;;;4994514;28;20440;-70
2023/05/02 03:27:35;;;;;;;35.60;22.50;;;;;;;;;;4994693;28;20451;-70
2023/05/02 03:30:04;;;;;;;33.23;21.43;;;;;;;;;;4994491;28;20453;-70
2023/05/02 03:32:31;;;;;;;38.13;23.03;;;;;;;;;;5005884;28;20844;-71
2023/05/02 03:34:59;;;;;;;35.67;22.60;;;;;;;;;;5012908;28;20955;-70
2023/05/02 03:37:26;;;;;;;37.33;23.97;;;;;;;;;;5013069;28;20573;-70
2023/05/02 03:39:53;;;;;;;40.83;22.40;;;;;;;;;;5012972;28;20435;-70
2023/05/02 03:42:20;;;;;;;37.10;20.33;;;;;;;;;;5013094;28;20530;-70
2023/05/02 03:44:47;;;;;;;40.07;21.00;;;;;;;;;;5013222;28;20441;-69
2023/05/02 03:47:16;;;;;;;35.07;21.50;;;;;;;;;;5012863;28;20451;-70
2023/05/02 03:49:43;;;;;;;39.27;21.60;;;;;;;;;;5013255;28;20447;-70
2023/05/02 03:52:10;;;;;;;38.37;22.00;;;;;;;;;;5013354;28;21030;-70
2023/05/02 03:54:37;;;;;;;29.03;20.90;;;;;;;;;;5012784;28;20444;-71
2023/05/02 03:57:05;;;;;;;37.93;22.67;;;;;;;;;;5013254;28;20781;-70
2023/05/02 03:59:33;;;;;;;35.00;23.27;;;;;;;;;;5012937;28;20800;-69
2023/05/02 04:02:01;;;;;;;35.33;21.03;;;;;;;;;;5004506;28;20491;-69
2023/05/02 04:04:29;;;;;;;33.20;21.90;;;;;;;;;;4993657;28;20437;-69
2023/05/02 04:06:56;;;;;;;38.37;20.20;;;;;;;;;;4993999;28;20448;-69
2023/05/02 04:09:24;;;;;;;30.17;19.80;;;;;;;;;;4993650;28;20547;-69
2023/05/02 04:11:51;;;;;;;36.57;21.90;;;;;;;;;;4994232;28;20579;-69
2023/05/02 04:14:19;;;;;;;34.17;20.47;;;;;;;;;;4994137;28;20444;-69
2023/05/02 04:16:48;;;;;;;31.40;20.37;;;;;;;;;;4993294;28;20450;-69
2023/05/02 04:19:17;;;;;;;40.70;21.40;;;;;;;;;;4992969;28;20451;-70
2023/05/02 04:21:46;;;;;;;34.67;22.23;;;;;;;;;;4993192;28;20476;-68
2023/05/02 04:24:14;;;;;;;41.27;20.80;;;;;;;;;;4993766;28;20444;-69
2023/05/02 04:26:41;;;;;;;30.00;19.20;;;;;;;;;;4993856;28;20810;-69
2023/05/02 04:29:08;;;;;;;39.50;21.17;;;;;;;;;;4993366;28;20508;-69
2023/05/02 04:31:35;;;;;;;47.70;21.50;;;;;;;;;;4993364;28;20448;-68
2023/05/02 04:34:03;;;;;;;29.10;18.50;;;;;;;;;;4993698;28;20444;-68
2023/05/02 04:36:31;;;;;;;22.30;15.00;;;;;;;;;;4993798;28;20448;-68
2023/05/02 04:38:59;;;;;;;21.37;12.63;;;;;;;;;;4992412;28;20844;-68
2023/05/02 04:41:26;;;;;;;16.20;10.50;;;;;;;;;;4992928;28;21067;-69
2023/05/02 04:43:53;;;;;;;15.50;8.97;;;;;;;;;;4993713;28;20496;-68
2023/05/02 04:46:21;;;;;;;15.73;8.07;;;;;;;;;;4993573;28;20817;-68
2023/05/02 04:48:48;;;;;;;12.00;7.87;;;;;;;;;;4993361;28;20453;-69
2023/05/02 04:51:15;;;;;;;10.07;7.67;;;;;;;;;;4993428;28;20448;-68
2023/05/02 04:53:42;;;;;;;8.10;6.33;;;;;;;;;;4993428;28;20456;-68
2023/05/02 04:56:11;;;;;;;8.77;6.60;;;;;;;;;;4993180;28;20444;-68
2023/05/02 04:58:38;;;;;;;7.93;6.80;;;;;;;;;;4993122;28;20448;-68
2023/05/02 05:01:05;;;;;;;9.80;7.20;;;;;;;;;;4992785;28;20484;-69
2023/05/02 05:03:33;;;;;;;8.40;7.10;;;;;;;;;;4992784;28;20448;-70
2023/05/02 05:06:01;;;;;;;9.70;7.00;;;;;;;;;;4993035;28;20445;-68
2023/05/02 05:08:28;;;;;;;7.82;6.13;;;;;;;;;;4993325;28;20817;-68
2023/05/02 05:10:55;;;;;;;9.20;7.15;;;;;;;;;;4996435;28;20205;-70
2023/05/02 05:13:24;;;;;;;16.55;8.13;;;;;;;;;;4996709;28;20205;-70
2023/05/02 05:15:51;;;;;;;10.32;6.85;;;;;;;;;;4996448;28;20650;-70
2023/05/02 05:18:18;;;;;;;15.98;6.80;;;;;;;;;;4996112;28;20203;-70
2023/05/02 05:20:45;;;;;;;8.80;6.10;;;;;;;;;;4996044;28;20217;-70
2023/05/02 05:23:12;;;;;;;7.70;6.50;;;;;;;;;;4996432;28;20455;-71
2023/05/02 05:25:40;;;;;;;14.63;6.73;;;;;;;;;;4996394;28;20451;-70
2023/05/02 05:28:07;;;;;;;11.00;6.83;;;;;;;;;;4996812;28;20525;-70
2023/05/02 05:30:35;;;;;;;9.57;6.70;;;;;;;;;;4996344;28;20957;-70
2023/05/02 05:33:03;;;;;;;8.17;6.67;;;;;;;;;;4996793;28;20455;-70
2023/05/02 05:35:30;;;;;;;8.60;6.53;;;;;;;;;;4996580;28;20451;-70
2023/05/02 05:37:58;;;;;;;10.00;6.83;;;;;;;;;;4996962;28;20479;-69
2023/05/02 05:40:25;;;;;;;8.13;6.00;;;;;;;;;;4996221;28;20448;-70
2023/05/02 05:42:52;;;;;;;11.33;6.13;;;;;;;;;;4996192;28;21001;-70
2023/05/02 05:45:20;;;;;;;7.00;6.30;;;;;;;;;;4996538;28;20548;-70
2023/05/02 05:47:48;;;;;;;6.53;5.93;;;;;;;;;;4996488;28;20452;-70
2023/05/02 05:50:15;;;;;;;8.10;5.10;;;;;;;;;;4996524;28;20456;-70
2023/05/02 05:52:43;;;;;;;6.20;5.60;;;;;;;;;;4996738;28;20448;-70
2023/05/02 05:55:10;;;;;;;10.07;5.97;;;;;;;;;;4996630;28;20448;-70
2023/05/02 05:57:38;;;;;;;7.87;5.97;;;;;;;;;;4996318;28;20451;-70
2023/05/02 06:00:06;;;;;;;8.27;5.47;;;;;;;;;;4996192;28;20799;-71
2023/05/02 06:02:33;;;;;;;11.17;5.80;;;;;;;;;;4996083;28;20547;-70
2023/05/02 06:05:01;;;;;;;7.17;5.87;;;;;;;;;;4996322;28;20448;-70
2023/05/02 06:07:29;;;;;;;14.80;6.83;;;;;;;;;;4995641;28;20459;-70
2023/05/02 06:09:56;;;;;;;10.17;6.20;;;;;;;;;;4995907;28;20511;-70
2023/05/02 06:12:23;;;;;;;6.67;4.43;;;;;;;;;;4996235;28;20444;-70
2023/05/02 06:14:51;;;;;;;6.97;5.60;;;;;;;;;;4995730;28;20960;-70
2023/05/02 06:17:18;;;;;;;5.50;5.00;;;;;;;;;;4995903;28;20456;-70
2023/05/02 06:19:45;;;;;;;6.53;3.10;;;;;;;;;;4995934;28;20445;-70
2023/05/02 06:22:14;;;;;;;2.60;2.40;;;;;;;;;;4994226;28;21031;-70
2023/05/02 06:24:41;;;;;;;3.53;2.50;;;;;;;;;;4995825;28;20539;-70
2023/05/02 06:27:08;;;;;;;3.03;2.72;;;;;;;;;;4995647;28;20444;-70
2023/05/02 06:29:35;;;;;;;13.20;5.10;;;;;;;;;;4996219;28;20197;-70
2023/05/02 06:32:03;;;;;;;4.03;3.50;;;;;;;;;;4995857;28;20200;-69
2023/05/02 06:34:32;;;;;;;3.85;3.00;;;;;;;;;;4995724;28;20623;-70
2023/05/02 06:37:00;;;;;;;3.22;2.72;;;;;;;;;;4995403;28;20193;-70
2023/05/02 06:39:28;;;;;;;11.82;4.10;;;;;;;;;;4995907;28;20186;-69
2023/05/02 06:41:57;;;;;;;4.72;3.55;;;;;;;;;;4995069;28;20693;-70
2023/05/02 06:44:24;;;;;;;5.43;3.75;;;;;;;;;;4995640;28;20260;-70
2023/05/02 06:46:52;;;;;;;5.80;3.75;;;;;;;;;;4995429;28;20193;-70
2023/05/02 06:49:19;;;;;;;11.07;3.67;;;;;;;;;;4995836;28;20200;-70
2023/05/02 06:51:46;;;;;;;11.00;4.13;;;;;;;;;;4995541;28;20448;-70
2023/05/02 06:54:14;;;;;;;5.78;3.92;;;;;;;;;;4995490;28;20192;-70
2023/05/02 06:56:43;;;;;;;7.05;4.50;;;;;;;;;;4995418;28;20200;-69
2023/05/02 06:59:10;;;;;;;5.97;4.13;;;;;;;;;;4995292;28;20193;-69
2023/05/02 07:01:38;;;;;;;9.38;4.18;;;;;;;;;;4995001;28;20216;-69
2023/05/02 07:04:05;;;;;;;11.60;5.10;;;;;;;;;;4995152;28;20207;-69
2023/05/02 07:06:32;;;;;;;12.75;4.65;;;;;;;;;;4995034;28;20267;-69
2023/05/02 07:09:00;;;;;;;12.25;5.53;;;;;;;;;;4995230;28;20267;-70
2023/05/02 07:11:27;;;;;;;12.05;5.18;;;;;;;;;;4995300;28;20211;-69
2023/05/02 07:13:56;;;;;;;13.50;6.93;;;;;;;;;;4995454;28;20283;-70
2023/05/02 07:16:23;;;;;;;11.18;5.43;;;;;;;;;;4994823;28;20205;-70
2023/05/02 07:18:50;;;;;;;48.03;8.57;;;;;;;;;;4994841;28;20199;-70
2023/05/02 07:21:18;;;;;;;15.90;5.60;;;;;;;;;;4995122;28;20203;-70
2023/05/02 07:23:45;;;;;;;12.65;7.90;;;;;;;;;;4995143;28;20328;-69
2023/05/02 07:26:12;;;;;;;19.48;6.70;;;;;;;;;;4994696;28;20207;-70
2023/05/02 07:28:39;;;;;;;13.90;6.87;;;;;;;;;;4994752;28;20200;-70
2023/05/02 07:31:08;;;;;;;13.25;6.47;;;;;;;;;;4994609;28;20448;-70
2023/05/02 07:33:35;;;;;;;11.82;6.13;;;;;;;;;;4993743;28;20207;-70
2023/05/02 07:36:02;;;;;;;15.90;5.70;;;;;;;;;;4994239;28;20205;-70
2023/05/02 07:38:30;;;;;;;13.30;5.40;;;;;;;;;;4994253;28;20225;-70
2023/05/02 07:40:58;;;;;;;10.73;5.80;;;;;;;;;;4994518;28;20803;-70
2023/05/02 07:43:26;;;;;;;14.77;5.65;;;;;;;;;;4994321;28;20216;-70
2023/05/02 07:45:54;;;;;;;17.08;5.28;;;;;;;;;;4994409;28;20201;-70
2023/05/02 07:48:22;;;;;;;11.98;5.90;;;;;;;;;;4994265;28;20204;-70
2023/05/02 07:50:49;;;;;;;12.43;4.45;;;;;;;;;;4994410;28;20286;-69
2023/05/02 07:53:17;;;;;;;5.80;4.38;;;;;;;;;;4994446;28;20197;-70
2023/05/02 07:55:44;;;;;;;9.20;4.20;;;;;;;;;;4994235;28;20323;-70
2023/05/02 07:58:11;;;;;;;8.65;4.03;;;;;;;;;;4994436;28;20199;-70
2023/05/02 08:00:38;;;;;;;7.72;3.60;;;;;;;;;;4994459;28;20203;-70
2023/05/02 08:03:06;;;;;;;13.90;3.58;;;;;;;;;;4993726;28;20224;-70
2023/05/02 08:05:34;;;;;;;7.32;4.45;;;;;;;;;;4994184;28;20281;-69
2023/05/02 08:08:02;;;;;;;12.48;4.32;;;;;;;;;;4994380;28;20197;-69
2023/05/02 08:10:30;;;;;;;10.50;3.90;;;;;;;;;;4993724;28;20223;-70
2023/05/02 08:12:57;;;;;;;6.50;4.10;;;;;;;;;;4994016;28;20303;-70
2023/05/02 08:15:24;;;;;;;7.00;4.35;;;;;;;;;;4994106;28;20196;-70
2023/05/02 08:17:52;;;;;;;13.85;4.70;;;;;;;;;;4993669;28;20658;-70
2023/05/02 08:20:19;;;;;;;8.73;4.22;;;;;;;;;;4993723;28;20204;-70
2023/05/02 08:22:47;;;;;;;8.47;4.00;;;;;;;;;;4993813;28;20542;-70
2023/05/02 08:25:14;;;;;;;17.85;5.70;;;;;;;;;;4994020;28;20454;-70
2023/05/02 08:27:42;;;;;;;9.55;4.40;;;;;;;;;;4993530;28;20201;-70
2023/05/02 08:30:09;;;;;;;13.23;4.82;;;;;;;;;;4993573;28;20201;-70
2023/05/02 08:32:36;;;;;;;9.27;5.22;;;;;;;;;;4993121;28;20204;-71
2023/05/02 08:35:03;;;;;;;6.53;4.22;;;;;;;;;;4993419;28;20201;-70
2023/05/02 08:37:31;;;;;;;8.23;3.75;;;;;;;;;;4993958;28;20224;-70
2023/05/02 08:40:00;;;;;;;11.73;4.40;;;;;;;;;;4993440;28;20200;-70
2023/05/02 08:42:28;;;;;;;9.07;4.43;;;;;;;;;;4993426;28;20307;-70
2023/05/02 08:44:55;;;;;;;13.90;4.53;;;;;;;;;;4995364;28;20444;-70
2023/05/02 08:47:23;;;;;;;9.50;3.42;;;;;;;;;;4997514;28;20436;-70
2023/05/02 08:49:50;;;;;;;17.53;5.30;;;;;;;;;;4997498;28;20559;-70
2023/05/02 08:52:19;;;;;;;9.83;3.87;;;;;;;;;;4997399;28;20787;-71
2023/05/02 08:54:46;;;;;;;11.10;4.90;;;;;;;;;;4997081;28;20444;-70
2023/05/02 08:57:14;;;;;;;7.77;3.53;;;;;;;;;;4997317;28;20805;-70
2023/05/02 08:59:43;;;;;;;14.23;4.43;;;;;;;;;;4997548;28;20444;-70
2023/05/02 09:02:13;;;;;;;5.53;3.57;;;;;;;;;;4997178;28;20495;-70
2023/05/02 09:04:42;;;;;;;5.23;3.60;;;;;;;;;;4997216;28;20441;-70
2023/05/02 09:07:09;;;;;;;7.20;4.00;;;;;;;;;;4997431;28;20510;-70
2023/05/02 09:09:36;;;;;;;9.98;4.40;;;;;;;;;;4996976;28;20450;-70
2023/05/02 09:12:04;;;;;;;10.83;4.33;;;;;;;;;;4997352;28;20211;-70
2023/05/02 09:14:33;;;;;;;5.30;3.67;;;;;;;;;;4996959;28;20450;-70
2023/05/02 09:17:00;;;;;;;7.73;3.57;;;;;;;;;;4996963;28;20929;-70
2023/05/02 09:19:28;;;;;;;5.63;3.60;;;;;;;;;;4996934;28;20447;-70
2023/05/02 09:22:00;;;;;;;7.40;3.77;;;;;;;;;;4996465;28;20508;-70
2023/05/02 09:24:27;;;;;;;9.17;3.47;;;;;;;;;;4996933;28;20432;-70
2023/05/02 09:26:58;;;;;;;6.77;3.90;;;;;;;;;;4996721;28;20455;-70
2023/05/02 09:29:25;;;;;;;6.07;3.23;;;;;;;;;;4996709;28;20444;-70
2023/05/02 09:31:54;;;;;;;8.97;3.30;;;;;;;;;;4996440;28;20435;-70
2023/05/02 09:34:21;;;;;;;9.43;3.43;;;;;;;;;;4996486;28;20440;-70
2023/05/02 09:36:50;;;;;;;8.63;3.20;;;;;;;;;;4997162;28;20440;-70
2023/05/02 09:39:19;;;;;;;4.17;3.30;;;;;;;;;;4996715;28;20463;-71
2023/05/02 09:41:47;;;;;;;8.70;3.30;;;;;;;;;;4996583;28;20491;-71
2023/05/02 09:44:15;;;;;;;5.93;3.33;;;;;;;;;;4996775;28;20853;-70
2023/05/02 09:46:43;;;;;;;6.67;3.00;;;;;;;;;;4996173;28;20515;-70
2023/05/02 09:49:13;;;;;;;7.03;3.03;;;;;;;;;;4996031;28;20444;-70
2023/05/02 09:51:42;;;;;;;5.13;2.73;;;;;;;;;;4996829;28;20811;-70
2023/05/02 09:54:10;;;;;;;4.20;2.77;;;;;;;;;;4996526;28;20540;-70
2023/05/02 09:56:52;;;;;;;5.90;2.50;;;;;;;;;;4995954;28;20547;-70
2023/05/02 09:59:19;;;;;;;9.60;2.90;;;;;;;;;;4996129;28;20428;-70
2023/05/02 10:01:46;;;;;;;2.53;2.23;;;;;;;;;;4995803;28;20454;-70
2023/05/02 10:04:15;;;;;;;3.53;2.93;;;;;;;;;;4995590;28;20491;-70
2023/05/02 10:06:43;;;;;;;10.27;2.57;;;;;;;;;;4996057;28;20444;-70
2023/05/02 10:09:11;;;;;;;8.53;2.50;;;;;;;;;;4996235;28;20462;-70
2023/05/02 10:11:39;;;;;;;3.80;2.43;;;;;;;;;;4995655;28;20444;-70
2023/05/02 10:14:09;;;;;;;6.73;2.13;;;;;;;;;;4996190;28;20448;-70
2023/05/02 10:16:37;;;;;;;5.10;2.37;;;;;;;;;;4995873;28;20452;-70
2023/05/02 10:19:08;;;;;;;4.50;2.57;;;;;;;;;;4995730;28;20482;-70
2023/05/02 10:21:37;;;;;;;4.30;2.97;;;;;;;;;;4995993;28;20781;-70
2023/05/02 10:24:05;;;;;;;3.40;2.40;;;;;;;;;;4995608;28;20481;-70
2023/05/02 10:26:35;;;;;;;2.90;2.37;;;;;;;;;;4995699;28;20448;-69
2023/05/02 10:29:02;;;;;;;4.50;3.10;;;;;;;;;;4996234;28;20465;-69
2023/05/02 10:31:36;;;;;;;3.40;2.30;;;;;;;;;;4995631;28;20444;-69
2023/05/02 10:34:03;;;;;;;7.00;3.13;;;;;;;;;;4996001;28;20451;-69
2023/05/02 10:36:32;;;;;;;4.10;2.93;;;;;;;;;;4995585;28;20444;-69
2023/05/02 10:39:01;;;;;;;4.93;2.93;;;;;;;;;;4994988;28;20514;-69
2023/05/02 10:41:31;;;;;;;5.03;2.70;;;;;;;;;;4995848;28;20813;-69
2023/05/02 10:43:59;;;;;;;5.07;3.20;;;;;;;;;;4995524;28;20549;-69
2023/05/02 10:46:34;;;;;;;4.13;3.00;;;;;;;;;;4994991;28;20500;-69
2023/05/02 10:49:01;;;;;;;7.80;3.90;;;;;;;;;;4995190;28;20793;-70
2023/05/02 10:51:30;;;;;;;8.10;3.23;;;;;;;;;;4995239;28;20447;-69
2023/05/02 10:54:19;;;;;;;4.63;4.10;;;;;;;;;;4994857;28;20449;-70
2023/05/02 10:57:05;;;;;;;6.40;3.20;;;;;;;;;;4995404;28;20426;-69
2023/05/02 10:59:33;;;;;;;7.80;3.47;;;;;;;;;;4994769;28;20531;-70
2023/05/02 11:02:01;;;;;;;7.33;3.77;;;;;;;;;;4995305;28;20445;-70
2023/05/02 11:04:43;;;;;;;44.67;5.23;;;;;;;;;;4994498;28;20486;-70
2023/05/02 11:07:19;;;;;;;7.03;3.70;;;;;;;;;;4993440;28;20467;-69
2023/05/02 11:09:48;;;;;;;12.33;4.00;;;;;;;;;;4995021;28;20938;-70
2023/05/02 11:12:30;;;;;;;5.67;3.90;;;;;;;;;;4994897;28;20438;-70
2023/05/02 11:14:57;;;;;;;5.80;3.53;;;;;;;;;;4994205;28;20450;-70
2023/05/02 11:17:25;;;;;;;12.30;4.47;;;;;;;;;;4994573;28;20452;-69
2023/05/02 11:20:26;;;;;;;8.93;3.73;;;;;;;;;;4994305;28;20450;-70
2023/05/02 11:22:53;;;;;;;8.63;3.90;;;;;;;;;;4995134;28;20908;-69
2023/05/02 11:25:32;;;;;;;10.33;3.83;;;;;;;;;;4994199;28;20445;-69
2023/05/02 11:27:59;;;;;;;12.20;4.17;;;;;;;;;;4994580;28;20484;-69
2023/05/02 11:30:43;;;;;;;13.60;5.20;;;;;;;;;;4994452;28;20867;-69
2023/05/02 11:33:17;;;;;;;13.13;5.00;;;;;;;;;;4994380;28;20802;-69
2023/05/02 11:35:46;;;;;;;19.13;5.70;;;;;;;;;;4994508;28;20436;-69
2023/05/02 11:38:14;;;;;;;12.30;4.20;;;;;;;;;;4994395;28;20468;-70
2023/05/02 11:40:50;;;;;;;8.70;4.70;;;;;;;;;;4994307;28;20481;-69
2023/05/02 11:43:18;;;;;;;9.30;4.27;;;;;;;;;;4994706;28;20479;-70
2023/05/02 11:45:45;;;;;;;13.80;4.73;;;;;;;;;;4994206;28;20447;-70
2023/05/02 11:48:13;;;;;;;7.90;4.23;;;;;;;;;;4994210;28;20822;-70
2023/05/02 11:50:44;;;;;;;10.73;4.13;;;;;;;;;;4994101;28;20457;-71
2023/05/02 11:53:12;;;;;;;12.53;4.53;;;;;;;;;;4994171;28;20449;-69
2023/05/02 11:55:44;;;;;;;10.67;5.10;;;;;;;;;;4994124;28;20849;-70
2023/05/02 11:58:15;;;;;;;12.00;5.03;;;;;;;;;;4995005;28;20437;-70
2023/05/02 12:00:45;;;;;;;9.03;4.87;;;;;;;;;;4994100;28;20489;-69
2023/05/02 12:03:20;;;;;;;34.60;6.57;;;;;;;;;;4994002;28;20930;-69
2023/05/02 12:05:48;;;;;;;8.97;4.97;;;;;;;;;;4994303;28;20488;-69
2023/05/02 12:08:19;;;;;;;11.37;5.10;;;;;;;;;;4994316;28;20492;-69
2023/05/02 12:10:46;;;;;;;9.93;4.53;;;;;;;;;;4993991;28;20524;-67
2023/05/02 12:13:15;;;;;;;15.07;6.13;;;;;;;;;;4994280;28;20441;-73
2023/05/02 12:15:42;;;;;;;102.77;15.23;;;;;;;;;;4993936;28;20452;-69
2023/05/02 12:18:09;;;;;;;8.07;5.53;;;;;;;;;;4994026;28;20447;-69
2023/05/02 12:20:37;;;;;;;16.10;4.60;;;;;;;;;;4998034;28;20460;-69
2023/05/02 12:23:06;;;;;;;11.33;5.30;;;;;;;;;;4997867;28;20484;-69
2023/05/02 12:25:37;;;;;;;7.90;4.70;;;;;;;;;;4997783;28;20540;-70
2023/05/02 12:28:04;;;;;;;8.47;4.73;;;;;;;;;;5003612;28;20904;-71
2023/05/02 12:30:33;;;;;;;8.60;5.50;;;;;;;;;;5015682;28;20527;-69
2023/05/02 12:33:01;;;;;;;6.30;4.03;;;;;;;;;;5016533;28;20498;-71
2023/05/02 12:35:30;;;;;;;9.40;4.60;;;;;;;;;;5016303;28;20458;-71
2023/05/02 12:38:08;;;;;;;11.70;5.63;;;;;;;;;;5016282;28;20480;-70
2023/05/02 12:40:35;;;;;;;9.37;5.73;;;;;;;;;;5016358;28;20460;-70
2023/05/02 12:43:05;;;;;;;6.80;4.73;;;;;;;;;;5016537;28;20474;-69
2023/05/02 12:45:33;;;;;;;8.60;4.67;;;;;;;;;;5016365;28;20794;-71
2023/05/02 12:48:01;;;;;;;9.43;5.37;;;;;;;;;;5016395;28;20438;-71
2023/05/02 12:50:37;;;;;;;8.13;4.90;;;;;;;;;;5016019;28;20455;-72
2023/05/02 12:53:06;;;;;;;10.70;5.90;;;;;;;;;;5015944;28;20448;-73
2023/05/02 12:55:33;;;;;;;21.23;7.70;;;;;;;;;;5016342;28;20824;-70
2023/05/02 12:58:01;;;;;;;11.07;6.27;;;;;;;;;;5016434;28;20451;-69
2023/05/02 13:00:28;;;;;;;7.80;4.93;;;;;;;;;;4996740;28;20444;-69
2023/05/02 13:02:57;;;;;;;10.10;5.77;;;;;;;;;;4997045;28;20530;-69
2023/05/02 13:05:24;;;;;;;12.00;5.30;;;;;;;;;;4997369;28;20442;-70
2023/05/02 13:07:51;;;;;;;5.80;5.00;;;;;;;;;;4996681;28;20448;-68
2023/05/02 13:10:19;;;;;;;7.47;4.63;;;;;;;;;;4996975;28;20547;-69
2023/05/02 13:12:46;;;;;;;13.57;5.77;;;;;;;;;;4996702;28;20935;-68
2023/05/02 13:15:14;;;;;;;10.83;5.17;;;;;;;;;;4996390;28;20452;-69
2023/05/02 13:17:41;;;;;;;7.90;4.57;;;;;;;;;;4996220;28;20461;-69
2023/05/02 13:20:10;;;;;;;12.90;5.97;;;;;;;;;;4996143;28;20537;-69
2023/05/02 13:22:38;;;;;;;10.47;5.77;;;;;;;;;;4996650;28;20564;-68
2023/05/02 13:25:05;;;;;;;9.43;5.33;;;;;;;;;;4996441;28;20484;-68
2023/05/02 13:27:33;;;;;;;10.10;5.03;;;;;;;;;;4996494;28;20482;-69
2023/05/02 13:30:00;;;;;;;9.40;6.03;;;;;;;;;;5011825;28;20527;-68
2023/05/02 13:32:28;;;;;;;10.77;5.47;;;;;;;;;;5016164;28;20441;-68
2023/05/02 13:34:55;;;;;;;8.33;5.20;;;;;;;;;;5015918;28;20440;-67
2023/05/02 13:37:25;;;;;;;8.03;4.83;;;;;;;;;;5015530;28;20562;-67
2023/05/02 13:39:52;;;;;;;6.40;5.20;;;;;;;;;;5015331;28;20911;-69
2023/05/02 13:42:19;;;;;;;5.57;4.57;;;;;;;;;;5015748;28;20446;-68
2023/05/02 13:44:47;;;;;;;7.83;4.50;;;;;;;;;;5016123;28;20537;-67
2023/05/02 13:47:14;;;;;;;16.00;5.37;;;;;;;;;;5015533;28;20932;-69
2023/05/02 13:49:41;;;;;;;10.00;4.90;;;;;;;;;;5015727;28;20442;-69
2023/05/02 13:52:08;;;;;;;16.70;5.80;;;;;;;;;;5015718;28;20453;-69
2023/05/02 13:54:40;;;;;;;8.00;5.10;;;;;;;;;;5015247;28;20456;-68
2023/05/02 13:57:07;;;;;;;9.00;5.43;;;;;;;;;;5015126;28;21014;-68
2023/05/02 13:59:34;;;;;;;10.97;5.43;;;;;;;;;;5014796;28;20458;-68
2023/05/02 14:02:01;;;;;;;9.80;5.00;;;;;;;;;;5015367;28;20453;-69
2023/05/02 14:04:28;;;;;;;10.40;5.70;;;;;;;;;;5015467;28;20496;-68
2023/05/02 14:06:56;;;;;;;10.40;5.50;;;;;;;;;;5015524;28;20457;-69
2023/05/02 14:09:23;;;;;;;8.70;5.33;;;;;;;;;;5015376;28;20463;-69
2023/05/02 14:11:51;;;;;;;8.00;5.63;;;;;;;;;;5015233;28;20553;-69
2023/05/02 14:14:18;;;;;;;10.90;5.80;;;;;;;;;;5014956;28;20449;-69
2023/05/02 14:16:46;;;;;;;7.47;4.87;;;;;;;;;;5014824;28;20439;-70
2023/05/02 14:19:13;;;;;;;10.23;4.90;;;;;;;;;;5014526;28;20486;-68
2023/05/02 14:21:40;;;;;;;8.17;5.87;;;;;;;;;;5014921;28;20464;-70
2023/05/02 14:24:07;;;;;;;9.77;4.73;;;;;;;;;;5015124;28;20831;-69
2023/05/02 14:26:35;;;;;;;8.00;5.23;;;;;;;;;;5015204;28;20544;-69
2023/05/02 14:29:03;;;;;;;15.57;5.90;;;;;;;;;;5014647;28;20447;-73
2023/05/02 14:31:30;;;;;;;7.37;5.00;;;;;;;;;;5015334;28;20442;-68
2023/05/02 14:33:57;;;;;;;7.33;4.57;;;;;;;;;;5015056;28;20452;-70
2023/05/02 14:36:25;;;;;;;10.27;5.83;;;;;;;;;;5014459;28;20478;-70
2023/05/02 14:38:53;;;;;;;9.80;5.30;;;;;;;;;;5014216;28;20484;-70